Aransas Pass, Texas
Current Conditions -  °F | °C
As of 5:55 PM on Monday 20 Oct 2014 (Local Time) from KTFP Reporting Station
Scattered Clouds Scattered Clouds  
Wind Chill: 25°   Ceiling: Unl
Heat Index: 26°   Visibility: 10mi
Dew Point: 22°   Wind: 8mph
Humidity: 84%   Direction: 60°ENE
Pressure: 29.95"   Gusts: NA
Location:  27.9°N, 97.15°W
Report Text: KTFP 202255Z AUTO 06007KT 10SM SCT120 25/22 A2995 RMK AO2 T02500221
Loading
Personal Weather Stations






























Interactive Weather Map
Tropical Storm Tracking
New forecast layout! Learn more

10-Day Weather Forecast

Advertisements
Track Severe Weather on mobile